createdAt,value
2022-08-22T00:00:25.112Z,5.80
2022-08-22T00:02:44.018Z,4.30
2022-08-22T00:03:17.429Z,6.22
2022-08-22T00:05:57.475Z,6.75
2022-08-22T00:08:39.598Z,7.00
2022-08-22T00:11:30.497Z,7.15
2022-08-22T00:14:12.180Z,7.63
2022-08-22T00:16:54.628Z,7.38
2022-08-22T00:19:41.749Z,8.70
2022-08-22T00:22:20.904Z,8.68
2022-08-22T00:25:26.117Z,8.57
2022-08-22T00:28:06.506Z,8.50
2022-08-22T00:30:44.573Z,8.90
2022-08-22T00:33:34.928Z,9.10
2022-08-22T00:36:33.771Z,9.73
2022-08-22T00:39:13.142Z,9.57
2022-08-22T00:42:29.335Z,9.85
2022-08-22T00:45:16.918Z,10.10
2022-08-22T00:48:10.546Z,10.13
2022-08-22T00:50:49.436Z,9.75
2022-08-22T00:53:37.757Z,10.15
2022-08-22T00:56:47.385Z,11.40
2022-08-22T00:59:28.608Z,11.77
2022-08-22T01:01:55.417Z,12.27
2022-08-22T01:04:47.179Z,11.95
2022-08-22T01:07:41.920Z,12.63
2022-08-22T01:10:30.320Z,12.98
2022-08-22T01:13:15.153Z,13.88
2022-08-22T01:15:43.554Z,13.30
2022-08-22T01:18:46.061Z,12.60
2022-08-22T01:21:41.822Z,12.15
2022-08-22T01:25:01.909Z,10.90
2022-08-22T01:27:48.903Z,10.27
2022-08-22T01:30:44.636Z,10.73
2022-08-22T01:33:48.804Z,10.05
2022-08-22T01:36:40.425Z,8.75
2022-08-22T01:39:21.073Z,9.85
2022-08-22T01:42:17.074Z,9.60
2022-08-22T01:45:38.134Z,8.23
2022-08-22T01:48:26.056Z,8.27
2022-08-22T01:51:21.166Z,8.30
2022-08-22T01:54:03.425Z,8.00
2022-08-22T01:56:40.109Z,8.13
2022-08-22T01:59:21.101Z,9.88
2022-08-22T02:02:45.787Z,10.55
2022-08-22T02:05:27.697Z,11.25
2022-08-22T02:08:24.169Z,12.20
2022-08-22T02:11:04.891Z,12.50
2022-08-22T02:14:03.595Z,13.38
2022-08-22T02:16:40.288Z,12.98
2022-08-22T02:19:16.040Z,12.23
2022-08-22T02:22:01.681Z,12.00
2022-08-22T02:24:34.117Z,11.90
2022-08-22T02:27:20.161Z,11.77
2022-08-22T02:29:58.432Z,12.05
2022-08-22T02:32:40.476Z,12.52
2022-08-22T02:37:48.849Z,15.63
2022-08-22T02:40:41.890Z,16.92
2022-08-22T02:43:12.850Z,17.30
2022-08-22T02:46:08.940Z,21.80
2022-08-22T02:48:47.973Z,26.17
2022-08-22T02:51:53.840Z,26.42
2022-08-22T02:54:35.726Z,26.98
2022-08-22T02:57:22.987Z,27.98
2022-08-22T03:00:31.207Z,29.23
2022-08-22T03:02:59.169Z,33.05
2022-08-22T03:05:38.293Z,33.13
2022-08-22T03:08:12.877Z,34.28
2022-08-22T03:10:45.796Z,37.50
2022-08-22T03:13:38.901Z,38.45
2022-08-22T03:16:31.842Z,36.72
2022-08-22T03:19:24.329Z,39.63
2022-08-22T03:22:03.146Z,39.22
2022-08-22T03:24:56.998Z,36.67
2022-08-22T03:27:33.897Z,40.20
2022-08-22T03:30:32.117Z,40.90
2022-08-22T03:33:14.237Z,41.97
2022-08-22T03:35:47.098Z,39.45
2022-08-22T03:38:23.668Z,41.90
2022-08-22T03:41:08.851Z,42.38
2022-08-22T03:44:13.028Z,42.80
2022-08-22T03:47:01.639Z,41.05
2022-08-22T03:49:47.117Z,45.13
2022-08-22T03:52:57.141Z,44.05
2022-08-22T03:55:43.096Z,44.05
2022-08-22T03:58:47.476Z,44.92
2022-08-22T04:01:17.427Z,43.75
2022-08-22T04:03:56.232Z,44.92
2022-08-22T04:06:44.739Z,41.67
2022-08-22T04:12:20.418Z,41.13
2022-08-22T04:14:50.268Z,42.37
2022-08-22T04:17:38.794Z,41.80
2022-08-22T04:20:21.026Z,42.33
2022-08-22T04:22:52.621Z,43.58
2022-08-22T04:25:29.941Z,42.53
2022-08-22T04:28:05.586Z,43.85
2022-08-22T04:30:56.269Z,43.53
2022-08-22T04:33:25.923Z,43.30
2022-08-22T04:36:07.874Z,42.22
2022-08-22T04:41:15.482Z,41.50
2022-08-22T04:43:53.513Z,44.60
2022-08-22T04:46:47.868Z,44.55
2022-08-22T04:49:29.365Z,44.60
2022-08-22T04:52:06.099Z,43.75
2022-08-22T04:54:38.830Z,45.50
2022-08-22T04:57:20.230Z,45.55
2022-08-22T04:59:47.398Z,42.33
2022-08-22T05:02:22.890Z,42.70
2022-08-22T05:05:04.234Z,43.00
2022-08-22T05:07:44.590Z,42.22
2022-08-22T05:10:19.604Z,43.03
2022-08-22T05:12:53.981Z,40.88
2022-08-22T05:15:26.423Z,42.20
2022-08-22T05:18:00.031Z,41.08
2022-08-22T05:20:28.870Z,42.42
2022-08-22T05:23:17.383Z,42.45
2022-08-22T05:25:49.653Z,41.03
2022-08-22T05:28:44.601Z,39.70
2022-08-22T05:31:32.011Z,41.22
2022-08-22T05:34:04.815Z,42.13
2022-08-22T05:36:37.943Z,43.58
2022-08-22T05:39:16.201Z,41.67
2022-08-22T05:41:44.745Z,42.05
2022-08-22T05:44:26.084Z,43.03
2022-08-22T05:47:29.923Z,40.30
2022-08-22T05:50:08.811Z,43.03
2022-08-22T05:53:08.458Z,42.58
2022-08-22T05:56:03.113Z,43.33
2022-08-22T05:58:44.901Z,42.65
2022-08-22T06:01:34.159Z,43.05
2022-08-22T06:04:12.346Z,43.35
2022-08-22T06:07:01.648Z,44.10
2022-08-22T06:09:46.316Z,42.15
2022-08-22T06:12:53.319Z,40.88
2022-08-22T06:15:27.603Z,40.13
2022-08-22T06:18:07.414Z,42.08
2022-08-22T06:21:06.598Z,41.08
2022-08-22T06:23:44.381Z,40.35
2022-08-22T06:26:20.443Z,39.95
2022-08-22T06:28:54.467Z,38.30
2022-08-22T06:31:35.923Z,37.53
2022-08-22T06:34:13.713Z,37.85
2022-08-22T06:36:44.250Z,36.67
2022-08-22T06:39:25.441Z,36.83
2022-08-22T06:42:18.217Z,35.70
2022-08-22T06:44:50.967Z,33.80
2022-08-22T06:47:23.558Z,32.92
2022-08-22T06:49:57.240Z,31.88
2022-08-22T06:52:27.274Z,33.10
2022-08-22T06:55:06.967Z,30.45
2022-08-22T06:57:37.542Z,32.08
2022-08-22T07:00:12.101Z,31.67
2022-08-22T07:02:42.629Z,30.63
2022-08-22T07:05:22.034Z,30.38
2022-08-22T07:07:50.705Z,30.50
2022-08-22T07:10:18.373Z,29.52
2022-08-22T07:12:49.310Z,29.95
2022-08-22T07:15:56.336Z,29.23
2022-08-22T07:18:26.968Z,29.40
2022-08-22T07:20:58.984Z,29.40
2022-08-22T07:23:42.062Z,30.02
2022-08-22T07:26:28.153Z,29.88
2022-08-22T07:29:07.817Z,28.80
2022-08-22T07:31:44.730Z,28.58
2022-08-22T07:34:46.512Z,30.30
2022-08-22T07:37:28.250Z,30.13
2022-08-22T07:40:21.433Z,29.55
2022-08-22T07:42:57.708Z,31.33
2022-08-22T07:45:36.863Z,31.17
2022-08-22T07:48:06.537Z,32.95
2022-08-22T07:50:51.512Z,33.33
2022-08-22T07:53:50.159Z,34.78
2022-08-22T07:56:22.499Z,32.97
2022-08-22T07:58:56.230Z,34.40
2022-08-22T08:01:25.499Z,33.30
2022-08-22T08:04:06.646Z,34.40
2022-08-22T08:06:35.303Z,35.03
2022-08-22T08:09:03.677Z,34.42
2022-08-22T08:11:38.953Z,31.92
2022-08-22T08:14:08.752Z,35.38
2022-08-22T08:16:57.800Z,37.85
2022-08-22T08:19:25.487Z,39.33
2022-08-22T08:21:55.816Z,39.40
2022-08-22T08:24:29.114Z,41.25
2022-08-22T08:27:25.975Z,42.05
2022-08-22T08:29:59.360Z,40.83
2022-08-22T08:32:31.181Z,41.35
2022-08-22T08:34:59.436Z,42.45
2022-08-22T08:37:41.523Z,42.15
2022-08-22T08:40:26.309Z,40.30
2022-08-22T08:43:31.325Z,42.08
2022-08-22T08:46:07.063Z,41.25
2022-08-22T08:49:08.022Z,41.17
2022-08-22T08:52:04.545Z,41.38
2022-08-22T08:54:58.284Z,40.95
2022-08-22T08:57:47.279Z,38.58
2022-08-22T09:00:17.580Z,39.08
2022-08-22T09:03:15.822Z,39.50
2022-08-22T09:06:18.533Z,39.45
2022-08-22T09:08:55.143Z,35.13
2022-08-22T09:11:31.553Z,32.90
2022-08-22T09:14:22.933Z,33.40
2022-08-22T09:17:17.634Z,33.30
2022-08-22T09:19:56.704Z,34.00
2022-08-22T09:22:51.240Z,34.30
2022-08-22T09:25:43.746Z,35.55
2022-08-22T09:28:34.002Z,36.72
2022-08-22T09:31:44.846Z,37.60
2022-08-22T09:34:40.476Z,37.42
2022-08-22T09:37:29.086Z,37.55
2022-08-22T09:40:16.999Z,37.47
2022-08-22T09:42:56.099Z,38.53
2022-08-22T09:45:41.453Z,35.65
2022-08-22T09:48:34.700Z,33.67
2022-08-22T09:51:31.476Z,31.50
2022-08-22T09:54:31.150Z,32.17
2022-08-22T09:57:09.001Z,30.13
2022-08-22T09:59:59.244Z,22.08
2022-08-22T10:02:36.627Z,22.23
2022-08-22T10:05:40.421Z,25.90
2022-08-22T10:08:32.250Z,27.58
2022-08-22T10:11:23.975Z,28.23
2022-08-22T10:14:00.574Z,26.95
2022-08-22T10:17:05.426Z,25.25
2022-08-22T10:19:46.862Z,21.80
2022-08-22T10:22:41.130Z,24.15
2022-08-22T10:25:36.780Z,25.45
2022-08-22T10:28:23.969Z,27.55
2022-08-22T10:31:19.304Z,25.98
2022-08-22T10:33:59.449Z,26.95
2022-08-22T10:36:49.954Z,22.05
2022-08-22T10:39:24.756Z,14.23
2022-08-22T10:42:06.113Z,12.57
2022-08-22T10:44:43.368Z,14.23
2022-08-22T10:47:19.693Z,16.02
2022-08-22T10:49:52.915Z,16.60
2022-08-22T10:52:24.117Z,10.77
2022-08-22T10:55:09.992Z,9.75
2022-08-22T10:58:06.357Z,8.00
2022-08-22T11:00:55.223Z,7.90
2022-08-22T11:03:42.716Z,7.80
2022-08-22T11:06:33.688Z,8.35
2022-08-22T11:09:14.221Z,9.40
2022-08-22T11:11:54.235Z,9.10
2022-08-22T11:14:50.797Z,8.45
2022-08-22T11:17:29.930Z,8.60
2022-08-22T11:20:27.009Z,8.38
2022-08-22T11:23:34.897Z,8.43
2022-08-22T11:26:33.537Z,7.40
2022-08-22T11:29:29.506Z,5.65
2022-08-22T11:32:19.533Z,4.70
2022-08-22T11:35:09.041Z,4.85
2022-08-22T11:37:45.114Z,5.00
2022-08-22T11:40:20.254Z,5.00
2022-08-22T11:42:55.790Z,4.93
2022-08-22T11:45:34.682Z,5.35
2022-08-22T11:48:16.559Z,4.20
2022-08-22T11:50:49.343Z,3.40
2022-08-22T11:53:24.170Z,4.00
2022-08-22T11:55:54.072Z,4.65
2022-08-22T11:58:33.192Z,4.28
2022-08-22T12:01:18.362Z,4.30
2022-08-22T12:03:58.556Z,4.25
2022-08-22T12:06:56.265Z,4.25
2022-08-22T12:09:35.920Z,4.50
2022-08-22T12:12:25.989Z,4.00
2022-08-22T12:15:21.455Z,4.00
2022-08-22T12:18:07.212Z,4.15
2022-08-22T12:21:04.500Z,3.83
2022-08-22T12:23:53.140Z,4.55
2022-08-22T12:26:26.008Z,4.40
2022-08-22T12:29:16.792Z,5.53
2022-08-22T12:31:58.873Z,10.45
2022-08-22T12:34:47.310Z,11.85
2022-08-22T12:37:53.101Z,12.27
2022-08-22T12:40:38.839Z,12.18
2022-08-22T12:43:18.751Z,11.80
2022-08-22T12:45:54.006Z,10.05
2022-08-22T12:48:52.219Z,9.93
2022-08-22T12:51:44.369Z,9.23
2022-08-22T12:54:30.414Z,8.68
2022-08-22T12:57:24.077Z,7.07
2022-08-22T12:59:58.317Z,7.85
2022-08-22T13:02:33.066Z,6.93
2022-08-22T13:05:24.972Z,7.63
2022-08-22T13:08:04.607Z,6.75
2022-08-22T13:10:41.030Z,5.72
2022-08-22T13:13:12.694Z,5.47
2022-08-22T13:15:53.835Z,5.97
2022-08-22T13:18:30.608Z,4.35
2022-08-22T13:21:02.622Z,4.05
2022-08-22T13:23:43.443Z,4.60
2022-08-22T13:26:32.176Z,4.25
2022-08-22T13:29:25.744Z,4.95
2022-08-22T13:32:01.893Z,4.45
2022-08-22T13:34:44.573Z,4.97
2022-08-22T13:37:28.780Z,4.70
2022-08-22T13:40:05.923Z,4.88
2022-08-22T13:42:40.167Z,5.03
2022-08-22T13:45:15.601Z,4.60
2022-08-22T13:48:11.428Z,4.88
2022-08-22T13:51:02.216Z,5.03
2022-08-22T13:53:41.617Z,5.37
2022-08-22T13:56:21.130Z,4.68
2022-08-22T13:58:52.826Z,4.95
2022-08-22T14:01:35.993Z,4.85
2022-08-22T14:04:28.823Z,4.82
2022-08-22T14:07:04.382Z,4.85
2022-08-22T14:10:00.154Z,4.43
2022-08-22T14:12:51.109Z,5.05
2022-08-22T14:15:32.063Z,4.78
2022-08-22T14:18:11.965Z,5.30
2022-08-22T14:20:41.153Z,5.05
2022-08-22T14:23:14.115Z,5.40
2022-08-22T14:25:43.768Z,5.18
2022-08-22T14:28:32.228Z,5.65
2022-08-22T14:31:14.377Z,4.97
2022-08-22T14:33:52.750Z,4.60
2022-08-22T14:36:45.831Z,5.40
2022-08-22T14:39:37.152Z,4.82
2022-08-22T14:42:15.405Z,4.65
2022-08-22T14:45:06.537Z,5.38
2022-08-22T14:48:30.396Z,5.10
2022-08-22T14:50:56.434Z,5.00
2022-08-22T14:53:26.553Z,4.77
2022-08-22T14:56:17.984Z,5.30
2022-08-22T15:01:18.939Z,6.00
2022-08-22T15:04:01.448Z,5.28
2022-08-22T15:06:57.881Z,5.32
2022-08-22T15:09:52.453Z,5.25
2022-08-22T15:12:34.668Z,5.30
2022-08-22T15:15:06.737Z,5.03
2022-08-22T15:17:38.785Z,5.40
2022-08-22T15:20:35.226Z,4.70
2022-08-22T15:23:16.456Z,5.03
2022-08-22T15:25:47.009Z,4.78
2022-08-22T15:28:20.116Z,4.22
2022-08-22T15:30:59.347Z,4.55
2022-08-22T15:33:43.345Z,4.45
2022-08-22T15:36:26.393Z,4.20
2022-08-22T15:38:56.719Z,4.03
2022-08-22T15:41:36.735Z,4.28
2022-08-22T15:44:14.708Z,4.50
2022-08-22T15:46:57.919Z,4.25
2022-08-22T15:49:35.963Z,4.10
2022-08-22T15:52:15.062Z,4.32
2022-08-22T15:54:54.210Z,4.43
2022-08-22T15:57:38.926Z,4.63
2022-08-22T16:00:45.075Z,3.90
2022-08-22T16:03:30.982Z,4.00
2022-08-22T16:06:07.600Z,4.10
2022-08-22T16:08:37.263Z,4.38
2022-08-22T16:11:04.035Z,4.18
2022-08-22T16:13:30.928Z,4.60
2022-08-22T16:16:07.119Z,5.68
2022-08-22T16:18:33.943Z,5.80
2022-08-22T16:21:27.164Z,4.63
2022-08-22T16:23:54.238Z,5.03
2022-08-22T16:26:24.002Z,4.72
2022-08-22T16:28:58.771Z,5.05
2022-08-22T16:31:37.724Z,5.07
2022-08-22T16:34:16.702Z,4.53
2022-08-22T16:36:51.645Z,4.93
2022-08-22T16:39:21.341Z,5.18
2022-08-22T16:41:54.332Z,4.85
2022-08-22T16:44:43.113Z,4.65
2022-08-22T16:47:15.316Z,4.68
2022-08-22T16:49:51.245Z,4.43
2022-08-22T16:52:21.285Z,4.47
2022-08-22T16:54:58.848Z,4.50
2022-08-22T16:57:33.350Z,4.25
2022-08-22T17:00:05.147Z,4.20
2022-08-22T17:03:08.472Z,4.70
2022-08-22T17:06:13.105Z,4.25
2022-08-22T17:09:03.539Z,4.38
2022-08-22T17:11:45.600Z,4.55
2022-08-22T17:15:04.093Z,5.18
2022-08-22T17:17:46.011Z,4.30
2022-08-22T17:20:26.458Z,4.55
2022-08-22T17:23:00.132Z,4.78
2022-08-22T17:25:47.141Z,4.80
2022-08-22T17:28:16.610Z,4.60
2022-08-22T17:30:58.217Z,5.00
2022-08-22T17:33:56.078Z,4.65
2022-08-22T17:36:41.959Z,5.38
2022-08-22T17:40:19.754Z,5.15
2022-08-22T17:43:08.084Z,5.13
2022-08-22T17:45:59.613Z,5.60
2022-08-22T17:48:39.700Z,5.15
2022-08-22T17:51:28.517Z,5.32
2022-08-22T17:54:15.557Z,5.53
2022-08-22T17:56:52.460Z,5.40
2022-08-22T17:59:39.737Z,5.40
2022-08-22T18:02:16.460Z,5.13
2022-08-22T18:05:04.579Z,4.65
2022-08-22T18:07:46.397Z,4.95
2022-08-22T18:12:54.729Z,4.65
2022-08-22T18:15:45.212Z,4.65
2022-08-22T18:18:30.369Z,4.55
2022-08-22T18:21:11.121Z,4.50
2022-08-22T18:23:44.917Z,4.32
2022-08-22T18:26:48.884Z,4.28
2022-08-22T18:29:52.036Z,4.65
2022-08-22T18:32:28.461Z,4.68
2022-08-22T18:35:02.564Z,4.50
2022-08-22T18:37:31.312Z,4.30
2022-08-22T18:40:06.318Z,4.78
2022-08-22T18:42:48.461Z,4.90
2022-08-22T18:45:44.739Z,4.90
2022-08-22T18:48:59.486Z,4.75
2022-08-22T18:51:38.377Z,5.25
2022-08-22T18:54:05.462Z,4.45
2022-08-22T18:56:35.619Z,5.07
2022-08-22T18:59:28.236Z,4.60
2022-08-22T19:02:36.819Z,5.00
2022-08-22T19:05:28.612Z,4.70
2022-08-22T19:08:33.497Z,5.38
2022-08-22T19:11:09.176Z,4.97
2022-08-22T19:13:45.782Z,4.72
2022-08-22T19:16:22.765Z,4.70
2022-08-22T19:19:01.066Z,4.72
2022-08-22T19:21:51.146Z,5.30
2022-08-22T19:24:20.984Z,5.05
2022-08-22T19:27:09.721Z,4.85
2022-08-22T19:29:36.473Z,5.00
2022-08-22T19:32:12.789Z,6.13
2022-08-22T19:34:46.819Z,4.75
2022-08-22T19:37:32.410Z,5.65
2022-08-22T19:40:44.524Z,5.10
2022-08-22T19:43:32.436Z,5.38
2022-08-22T19:46:03.840Z,6.10
2022-08-22T19:48:52.624Z,5.72
2022-08-22T19:51:19.369Z,5.82
2022-08-22T19:54:01.052Z,6.00
2022-08-22T19:56:51.120Z,6.20
2022-08-22T19:59:20.099Z,6.00
2022-08-22T20:02:07.544Z,5.90
2022-08-22T20:05:02.634Z,6.03
2022-08-22T20:07:53.093Z,6.30
2022-08-22T20:10:23.768Z,6.78
2022-08-22T20:13:02.266Z,6.32
2022-08-22T20:15:31.960Z,6.10
2022-08-22T20:18:47.218Z,6.40
2022-08-22T20:20:59.562Z,6.85
2022-08-22T20:23:31.629Z,7.18
2022-08-22T20:25:59.005Z,6.97
2022-08-22T20:28:38.100Z,6.90
2022-08-22T20:31:11.643Z,6.63
2022-08-22T20:33:42.574Z,7.05
2022-08-22T20:36:27.250Z,7.25
2022-08-22T20:39:00.192Z,7.88
2022-08-22T20:41:40.483Z,7.60
2022-08-22T20:44:47.552Z,7.80
2022-08-22T20:47:26.429Z,7.47
2022-08-22T20:50:11.961Z,7.35
2022-08-22T20:52:51.975Z,7.80
2022-08-22T20:55:31.879Z,8.13
2022-08-22T20:58:03.808Z,7.85
2022-08-22T21:00:35.685Z,7.85
2022-08-22T21:03:33.399Z,7.63
2022-08-22T21:06:14.354Z,7.60
2022-08-22T21:08:43.838Z,7.73
2022-08-22T21:11:39.353Z,8.00
2022-08-22T21:14:21.491Z,7.97
2022-08-22T21:16:48.801Z,8.60
2022-08-22T21:19:21.252Z,8.70
2022-08-22T21:21:48.101Z,9.02
2022-08-22T21:24:15.309Z,9.48
2022-08-22T21:26:54.522Z,9.00
2022-08-22T21:29:26.666Z,9.27
2022-08-22T21:32:14.504Z,9.35
2022-08-22T21:34:44.096Z,10.90
2022-08-22T21:37:18.574Z,10.48
2022-08-22T21:39:53.093Z,10.23
2022-08-22T21:42:35.882Z,11.30
2022-08-22T21:45:09.540Z,13.50
2022-08-22T21:47:40.053Z,13.23
2022-08-22T21:50:12.687Z,15.00
2022-08-22T21:52:53.740Z,15.48
2022-08-22T21:55:43.034Z,15.43
2022-08-22T21:58:12.777Z,15.75
2022-08-22T22:01:02.627Z,17.08
2022-08-22T22:03:38.055Z,17.15
2022-08-22T22:06:06.627Z,20.17
2022-08-22T22:08:33.794Z,19.02
2022-08-22T22:11:04.704Z,18.92
2022-08-22T22:13:33.295Z,20.40
2022-08-22T22:16:00.465Z,19.35
2022-08-22T22:18:32.134Z,18.90
2022-08-22T22:20:59.697Z,18.65
2022-08-22T22:23:27.013Z,19.80
2022-08-22T22:25:56.384Z,19.58
2022-08-22T22:28:40.721Z,19.85
2022-08-22T22:31:08.116Z,18.75
2022-08-22T22:33:38.462Z,19.83
2022-08-22T22:36:10.115Z,18.23
2022-08-22T22:38:38.581Z,20.10
2022-08-22T22:41:05.529Z,18.35
2022-08-22T22:43:32.788Z,18.95
2022-08-22T22:45:59.654Z,19.20
2022-08-22T22:48:26.632Z,18.95
2022-08-22T22:50:54.151Z,18.65
2022-08-22T22:53:37.923Z,18.35
2022-08-22T22:56:06.861Z,18.05
2022-08-22T22:58:36.693Z,18.35
2022-08-22T23:01:25.972Z,18.50
2022-08-22T23:03:56.945Z,16.92
2022-08-22T23:06:26.137Z,18.10
2022-08-22T23:08:53.672Z,18.50
2022-08-22T23:11:24.217Z,18.23
2022-08-22T23:13:51.599Z,17.10
2022-08-22T23:16:23.580Z,17.88
2022-08-22T23:18:50.903Z,17.98
2022-08-22T23:21:24.157Z,17.35
2022-08-22T23:23:51.590Z,17.15
2022-08-22T23:26:18.416Z,17.65
2022-08-22T23:28:45.431Z,17.38
2022-08-22T23:31:19.804Z,17.70
2022-08-22T23:33:46.877Z,16.52
2022-08-22T23:36:20.477Z,17.25
2022-08-22T23:38:48.752Z,17.13
2022-08-22T23:41:17.750Z,17.05
2022-08-22T23:43:47.782Z,16.50
2022-08-22T23:46:16.381Z,16.85
2022-08-22T23:48:43.587Z,16.15
2022-08-22T23:51:12.069Z,16.95
2022-08-22T23:53:39.207Z,17.02
2022-08-22T23:56:19.772Z,17.55
2022-08-22T23:58:49.133Z,18.25
